• Join FlightAware (Why Join?)
  • Login
  • US Flag 
03:08AM EDT


 

Airport Tracker/Info


-or-


 

Live Flight TrackerFlight Track Log ✈ SKW4664 ✈ 25-Jul-2013 ✈ KFSD - KMSP

Flight Track Log - Related Links

Times and Time Zones

All times are in EDT time to prevent confusion due to time zone crossing. See the SKW4664 flight status page for this flight to view local times or setup timezone preferences in your user account.

Time Position Orientation Groundspeed Altitude Reporting Facility
EDT Latitude Longitude Course Direction KTS MPH feet Rate Location/Type
12:04PM 43.5522 -96.6853 99° East 233 268 5,100  Level Minneapolis Center
12:05PM 43.5956 -96.6097 52° Northeast 242 278 7,000 1,980 Climbing Minneapolis Center
12:06PM 43.9087 -96.1314 53° Northeast  Level FlightAware Approximate
12:06PM 43.6447 -96.5283 50° Northeast 259 298 9,300  Level Minneapolis Center
12:07PM 43.9766 -96.0091 52° Northeast  Level FlightAware Approximate
12:07PM 43.6972 -96.4394 51° Northeast 279 321 11,400  Level Minneapolis Center
12:08PM 44.0446 -95.8867 52° Northeast  Level FlightAware Approximate
12:08PM 43.7525 -96.3478 50° Northeast 300 345 13,600  Level Minneapolis Center
12:09PM 43.8106 -96.2514 50° Northeast 325 374 14,900 1,440 Climbing Minneapolis Center
12:10PM 43.8994 -96.1014 51° Northeast 362 417 17,000 1,440 Climbing Minneapolis Center
12:11PM 43.9647 -95.9919 50° Northeast 370 426 18,300 1,320 Climbing Minneapolis Center
12:12PM 44.0311 -95.8797 51° Northeast 380 437 19,800 1,200 Climbing Minneapolis Center
12:13PM 44.0992 -95.7639 51° Northeast 389 448 20,900 1,320 Climbing Minneapolis Center
12:14PM 44.1817 -95.6256 50° Northeast 391 450 22,600 960 Climbing Minneapolis Center
12:15PM 44.2503 -95.5061 51° Northeast 395 455 23,000 180 Climbing Minneapolis Center
12:16PM 44.3239 -95.3792 51° Northeast 415 478 23,000  Level Minneapolis Center
12:18PM 44.3950 -95.2450 53° Northeast 428 493 23,000 -780 Level Minneapolis Center
12:19PM 44.4339 -95.0897 71° East 424 488 21,400 -1,620 Descending Minneapolis Center
12:20PM 44.4769 -94.9375 68° East 422 486 19,700 -1,800 Descending Minneapolis Center
12:21PM 44.5283 -94.7619 68° East 411 473 17,700 -1,800 Descending Minneapolis Center
12:22PM 44.5656 -94.6231 69° East 390 449 16,000 -1,800 Descending Minneapolis Center
12:23PM 44.6072 -94.4722 69° East 382 440 14,100 -1,500 Descending Minneapolis Center
12:24PM 44.6458 -94.3308 69° East 387 445 12,600 -1,320 Descending Minneapolis Center
12:25PM 44.6892 -94.1722 69° East 362 417 11,100 -720 Descending Minneapolis Center
12:26PM 44.7181 -94.0472 72° East 338 389 11,100  Level Minneapolis Center
12:27PM 44.7442 -93.9294 73° East 319 367 11,100 -60 Level Minneapolis Center
12:28PM 44.7711 -93.8086 73° East 323 372 11,000 -60 Descending Minneapolis Center
12:29PM 44.8025 -93.6664 73° East 318 366 11,000 -420 Level Minneapolis Center
12:30PM 44.8294 -93.5428 73° East 326 375 10,200 -1,140 Descending Minneapolis Center
12:31PM 44.8553 -93.4267 73° East 312 359 8,700 -1,140 Descending Minneapolis Center
12:32PM 44.8478 -93.3192 96° East 288 331 7,900 -1,200 Descending Minneapolis Center
12:33PM 44.7789 -93.2925 165° South 262 302 6,300 -1,500 Descending Minneapolis Center
12:34PM 44.7078 -93.2586 161° South 242 278 4,900 -1,380 Descending Minneapolis Center